sensor_id;sensor_type;location;lat;lon;timestamp;P1;durP1;ratioP1;P2;durP2;ratioP2
18320;SDS011;54904;54.350;18.664;2024-01-16T00:01:45;0.73;;;0.60;;
18320;SDS011;54904;54.350;18.664;2024-01-16T00:04:13;1.23;;;0.67;;
18320;SDS011;54904;54.350;18.664;2024-01-16T00:06:41;1.37;;;0.77;;
18320;SDS011;54904;54.350;18.664;2024-01-16T00:09:09;1.47;;;0.70;;
18320;SDS011;54904;54.350;18.664;2024-01-16T00:11:40;1.43;;;0.73;;
18320;SDS011;54904;54.350;18.664;2024-01-16T00:14:10;1.00;;;0.53;;
18320;SDS011;54904;54.350;18.664;2024-01-16T00:16:43;1.50;;;0.67;;
18320;SDS011;54904;54.350;18.664;2024-01-16T00:19:10;0.60;;;0.60;;
18320;SDS011;54904;54.350;18.664;2024-01-16T00:21:38;0.50;;;0.50;;
18320;SDS011;54904;54.350;18.664;2024-01-16T00:24:10;0.60;;;0.50;;
18320;SDS011;54904;54.350;18.664;2024-01-16T00:26:40;0.60;;;0.60;;
18320;SDS011;54904;54.350;18.664;2024-01-16T00:29:08;0.60;;;0.40;;
18320;SDS011;54904;54.350;18.664;2024-01-16T00:31:37;0.93;;;0.53;;
18320;SDS011;54904;54.350;18.664;2024-01-16T00:34:05;1.13;;;0.80;;
18320;SDS011;54904;54.350;18.664;2024-01-16T00:36:34;0.70;;;0.70;;
18320;SDS011;54904;54.350;18.664;2024-01-16T00:39:02;1.67;;;0.60;;
18320;SDS011;54904;54.350;18.664;2024-01-16T00:41:29;0.70;;;0.70;;
18320;SDS011;54904;54.350;18.664;2024-01-16T00:43:58;1.00;;;0.80;;
18320;SDS011;54904;54.350;18.664;2024-01-16T00:46:27;0.70;;;0.70;;
18320;SDS011;54904;54.350;18.664;2024-01-16T00:48:54;2.07;;;0.70;;
18320;SDS011;54904;54.350;18.664;2024-01-16T00:51:21;1.27;;;0.70;;
18320;SDS011;54904;54.350;18.664;2024-01-16T00:53:48;1.07;;;0.87;;
18320;SDS011;54904;54.350;18.664;2024-01-16T00:56:15;0.83;;;0.60;;
18320;SDS011;54904;54.350;18.664;2024-01-16T00:58:47;2.30;;;0.60;;
18320;SDS011;54904;54.350;18.664;2024-01-16T01:01:19;0.53;;;0.50;;
18320;SDS011;54904;54.350;18.664;2024-01-16T01:03:46;0.80;;;0.60;;
18320;SDS011;54904;54.350;18.664;2024-01-16T01:06:13;1.73;;;0.57;;
18320;SDS011;54904;54.350;18.664;2024-01-16T01:08:43;1.00;;;0.37;;
18320;SDS011;54904;54.350;18.664;2024-01-16T01:11:11;0.70;;;0.50;;
18320;SDS011;54904;54.350;18.664;2024-01-16T01:13:42;0.57;;;0.57;;
18320;SDS011;54904;54.350;18.664;2024-01-16T01:16:09;0.50;;;0.50;;
18320;SDS011;54904;54.350;18.664;2024-01-16T01:18:41;0.60;;;0.60;;
18320;SDS011;54904;54.350;18.664;2024-01-16T01:21:08;0.70;;;0.40;;
18320;SDS011;54904;54.350;18.664;2024-01-16T01:23:35;0.67;;;0.67;;
18320;SDS011;54904;54.350;18.664;2024-01-16T01:26:02;0.60;;;0.60;;
18320;SDS011;54904;54.350;18.664;2024-01-16T01:28:30;1.23;;;0.60;;
18320;SDS011;54904;54.350;18.664;2024-01-16T01:30:59;0.50;;;0.50;;
18320;SDS011;54904;54.350;18.664;2024-01-16T01:33:29;0.40;;;0.40;;
18320;SDS011;54904;54.350;18.664;2024-01-16T01:35:59;1.17;;;0.60;;
18320;SDS011;54904;54.350;18.664;2024-01-16T01:38:26;0.87;;;0.57;;
18320;SDS011;54904;54.350;18.664;2024-01-16T01:40:53;0.73;;;0.57;;
18320;SDS011;54904;54.350;18.664;2024-01-16T01:43:22;0.73;;;0.50;;
18320;SDS011;54904;54.350;18.664;2024-01-16T01:45:56;0.77;;;0.70;;
18320;SDS011;54904;54.350;18.664;2024-01-16T01:48:34;0.90;;;0.80;;
18320;SDS011;54904;54.350;18.664;2024-01-16T01:51:28;0.50;;;0.50;;
18320;SDS011;54904;54.350;18.664;2024-01-16T01:53:56;1.90;;;0.60;;
18320;SDS011;54904;54.350;18.664;2024-01-16T01:56:24;0.60;;;0.40;;
18320;SDS011;54904;54.350;18.664;2024-01-16T01:58:53;2.20;;;0.50;;
18320;SDS011;54904;54.350;18.664;2024-01-16T02:01:27;0.93;;;0.70;;
18320;SDS011;54904;54.350;18.664;2024-01-16T02:03:57;1.67;;;0.60;;
18320;SDS011;54904;54.350;18.664;2024-01-16T02:06:26;2.87;;;0.90;;
18320;SDS011;54904;54.350;18.664;2024-01-16T02:08:53;0.87;;;0.67;;
18320;SDS011;54904;54.350;18.664;2024-01-16T02:11:22;0.50;;;0.50;;
18320;SDS011;54904;54.350;18.664;2024-01-16T02:13:49;0.70;;;0.70;;
18320;SDS011;54904;54.350;18.664;2024-01-16T02:16:17;0.70;;;0.60;;
18320;SDS011;54904;54.350;18.664;2024-01-16T02:18:45;1.47;;;0.53;;
18320;SDS011;54904;54.350;18.664;2024-01-16T02:21:12;1.47;;;0.50;;
18320;SDS011;54904;54.350;18.664;2024-01-16T02:23:46;0.97;;;0.60;;
18320;SDS011;54904;54.350;18.664;2024-01-16T02:26:14;0.73;;;0.57;;
18320;SDS011;54904;54.350;18.664;2024-01-16T02:28:44;2.37;;;1.07;;
18320;SDS011;54904;54.350;18.664;2024-01-16T02:31:14;0.73;;;0.43;;
18320;SDS011;54904;54.350;18.664;2024-01-16T02:33:44;1.20;;;0.47;;
18320;SDS011;54904;54.350;18.664;2024-01-16T02:36:11;0.87;;;0.60;;
18320;SDS011;54904;54.350;18.664;2024-01-16T02:38:39;1.80;;;0.70;;
18320;SDS011;54904;54.350;18.664;2024-01-16T02:41:14;0.70;;;0.60;;
18320;SDS011;54904;54.350;18.664;2024-01-16T02:43:43;0.70;;;0.53;;
18320;SDS011;54904;54.350;18.664;2024-01-16T02:46:13;0.83;;;0.50;;
18320;SDS011;54904;54.350;18.664;2024-01-16T02:48:40;1.90;;;0.50;;
18320;SDS011;54904;54.350;18.664;2024-01-16T02:51:08;1.50;;;0.40;;
18320;SDS011;54904;54.350;18.664;2024-01-16T02:53:35;0.50;;;0.40;;
18320;SDS011;54904;54.350;18.664;2024-01-16T02:56:05;0.40;;;0.40;;
18320;SDS011;54904;54.350;18.664;2024-01-16T02:58:32;0.50;;;0.50;;
18320;SDS011;54904;54.350;18.664;2024-01-16T03:00:59;1.00;;;0.50;;
18320;SDS011;54904;54.350;18.664;2024-01-16T03:03:30;0.47;;;0.40;;
18320;SDS011;54904;54.350;18.664;2024-01-16T03:05:58;0.93;;;0.50;;
18320;SDS011;54904;54.350;18.664;2024-01-16T03:08:28;0.40;;;0.40;;
18320;SDS011;54904;54.350;18.664;2024-01-16T03:10:58;0.40;;;0.40;;
18320;SDS011;54904;54.350;18.664;2024-01-16T03:13:29;0.50;;;0.50;;
18320;SDS011;54904;54.350;18.664;2024-01-16T03:15:56;0.60;;;0.60;;
18320;SDS011;54904;54.350;18.664;2024-01-16T03:18:23;0.30;;;0.30;;
18320;SDS011;54904;54.350;18.664;2024-01-16T03:20:51;0.50;;;0.50;;
18320;SDS011;54904;54.350;18.664;2024-01-16T03:23:22;0.60;;;0.53;;
18320;SDS011;54904;54.350;18.664;2024-01-16T03:25:50;0.70;;;0.70;;
18320;SDS011;54904;54.350;18.664;2024-01-16T03:28:17;1.63;;;0.60;;
18320;SDS011;54904;54.350;18.664;2024-01-16T03:30:47;0.40;;;0.40;;
18320;SDS011;54904;54.350;18.664;2024-01-16T03:33:14;0.70;;;0.70;;
18320;SDS011;54904;54.350;18.664;2024-01-16T03:35:41;0.70;;;0.70;;
18320;SDS011;54904;54.350;18.664;2024-01-16T03:38:08;0.40;;;0.40;;
18320;SDS011;54904;54.350;18.664;2024-01-16T03:40:36;0.40;;;0.40;;
18320;SDS011;54904;54.350;18.664;2024-01-16T03:43:03;0.83;;;0.40;;
18320;SDS011;54904;54.350;18.664;2024-01-16T03:45:31;0.50;;;0.50;;
18320;SDS011;54904;54.350;18.664;2024-01-16T03:47:59;0.50;;;0.50;;
18320;SDS011;54904;54.350;18.664;2024-01-16T03:50:30;0.53;;;0.53;;
18320;SDS011;54904;54.350;18.664;2024-01-16T03:52:59;0.67;;;0.53;;
18320;SDS011;54904;54.350;18.664;2024-01-16T03:55:26;4.50;;;0.80;;
18320;SDS011;54904;54.350;18.664;2024-01-16T03:57:53;0.70;;;0.50;;
18320;SDS011;54904;54.350;18.664;2024-01-16T04:00:20;0.60;;;0.60;;
18320;SDS011;54904;54.350;18.664;2024-01-16T04:02:47;0.90;;;0.50;;
18320;SDS011;54904;54.350;18.664;2024-01-16T04:05:16;0.73;;;0.50;;
18320;SDS011;54904;54.350;18.664;2024-01-16T04:07:46;0.67;;;0.40;;
18320;SDS011;54904;54.350;18.664;2024-01-16T04:10:13;0.73;;;0.60;;
18320;SDS011;54904;54.350;18.664;2024-01-16T04:12:41;0.30;;;0.30;;
18320;SDS011;54904;54.350;18.664;2024-01-16T04:15:09;0.47;;;0.47;;
18320;SDS011;54904;54.350;18.664;2024-01-16T04:17:36;2.13;;;0.67;;
18320;SDS011;54904;54.350;18.664;2024-01-16T04:20:07;0.97;;;0.60;;
18320;SDS011;54904;54.350;18.664;2024-01-16T04:22:39;0.40;;;0.40;;
18320;SDS011;54904;54.350;18.664;2024-01-16T04:25:06;1.27;;;0.70;;
18320;SDS011;54904;54.350;18.664;2024-01-16T04:27:35;0.73;;;0.53;;
18320;SDS011;54904;54.350;18.664;2024-01-16T04:30:02;0.93;;;0.70;;
18320;SDS011;54904;54.350;18.664;2024-01-16T04:32:33;0.97;;;0.70;;
18320;SDS011;54904;54.350;18.664;2024-01-16T04:35:01;0.60;;;0.60;;
18320;SDS011;54904;54.350;18.664;2024-01-16T04:37:29;0.70;;;0.63;;
18320;SDS011;54904;54.350;18.664;2024-01-16T04:39:57;0.50;;;0.50;;
18320;SDS011;54904;54.350;18.664;2024-01-16T04:42:25;1.37;;;0.70;;
18320;SDS011;54904;54.350;18.664;2024-01-16T04:44:55;1.13;;;0.70;;
18320;SDS011;54904;54.350;18.664;2024-01-16T04:47:22;1.10;;;0.60;;
18320;SDS011;54904;54.350;18.664;2024-01-16T04:49:49;0.90;;;0.80;;
18320;SDS011;54904;54.350;18.664;2024-01-16T04:52:16;1.63;;;0.83;;
18320;SDS011;54904;54.350;18.664;2024-01-16T04:54:43;1.73;;;0.73;;
18320;SDS011;54904;54.350;18.664;2024-01-16T04:57:12;2.63;;;0.80;;
18320;SDS011;54904;54.350;18.664;2024-01-16T04:59:41;1.20;;;0.80;;
18320;SDS011;54904;54.350;18.664;2024-01-16T05:02:08;3.83;;;0.77;;
18320;SDS011;54904;54.350;18.664;2024-01-16T05:04:36;1.77;;;0.53;;
18320;SDS011;54904;54.350;18.664;2024-01-16T05:07:04;0.67;;;0.67;;
18320;SDS011;54904;54.350;18.664;2024-01-16T05:09:31;0.47;;;0.47;;
18320;SDS011;54904;54.350;18.664;2024-01-16T05:11:58;0.97;;;0.70;;
18320;SDS011;54904;54.350;18.664;2024-01-16T05:14:28;0.77;;;0.70;;
18320;SDS011;54904;54.350;18.664;2024-01-16T05:16:55;0.70;;;0.70;;
18320;SDS011;54904;54.350;18.664;2024-01-16T05:19:22;0.43;;;0.43;;
18320;SDS011;54904;54.350;18.664;2024-01-16T05:21:50;0.90;;;0.70;;
18320;SDS011;54904;54.350;18.664;2024-01-16T05:24:17;1.20;;;0.60;;
18320;SDS011;54904;54.350;18.664;2024-01-16T05:26:44;1.17;;;0.90;;
18320;SDS011;54904;54.350;18.664;2024-01-16T05:29:11;1.63;;;0.60;;
18320;SDS011;54904;54.350;18.664;2024-01-16T05:31:44;1.60;;;0.67;;
18320;SDS011;54904;54.350;18.664;2024-01-16T05:34:13;0.83;;;0.70;;
18320;SDS011;54904;54.350;18.664;2024-01-16T05:36:40;0.70;;;0.70;;
18320;SDS011;54904;54.350;18.664;2024-01-16T05:39:09;1.50;;;0.50;;
18320;SDS011;54904;54.350;18.664;2024-01-16T05:41:36;0.90;;;0.80;;
18320;SDS011;54904;54.350;18.664;2024-01-16T05:44:03;0.70;;;0.70;;
18320;SDS011;54904;54.350;18.664;2024-01-16T05:46:30;0.77;;;0.77;;
18320;SDS011;54904;54.350;18.664;2024-01-16T05:48:59;1.20;;;0.70;;
18320;SDS011;54904;54.350;18.664;2024-01-16T05:51:27;2.20;;;1.00;;
18320;SDS011;54904;54.350;18.664;2024-01-16T05:53:55;0.77;;;0.77;;
18320;SDS011;54904;54.350;18.664;2024-01-16T05:56:26;0.77;;;0.70;;
18320;SDS011;54904;54.350;18.664;2024-01-16T05:58:53;0.63;;;0.63;;
18320;SDS011;54904;54.350;18.664;2024-01-16T06:01:20;1.00;;;0.80;;
18320;SDS011;54904;54.350;18.664;2024-01-16T06:03:51;2.00;;;0.80;;
18320;SDS011;54904;54.350;18.664;2024-01-16T06:06:20;1.00;;;0.77;;
18320;SDS011;54904;54.350;18.664;2024-01-16T06:08:47;1.87;;;0.80;;
18320;SDS011;54904;54.350;18.664;2024-01-16T06:11:14;0.60;;;0.60;;
18320;SDS011;54904;54.350;18.664;2024-01-16T06:13:41;1.53;;;0.90;;
18320;SDS011;54904;54.350;18.664;2024-01-16T06:16:08;0.40;;;0.40;;
18320;SDS011;54904;54.350;18.664;2024-01-16T06:18:36;0.70;;;0.70;;
18320;SDS011;54904;54.350;18.664;2024-01-16T06:21:03;0.83;;;0.67;;
18320;SDS011;54904;54.350;18.664;2024-01-16T06:23:32;0.60;;;0.60;;
18320;SDS011;54904;54.350;18.664;2024-01-16T06:25:59;3.03;;;0.80;;
18320;SDS011;54904;54.350;18.664;2024-01-16T06:28:26;1.70;;;0.80;;
18320;SDS011;54904;54.350;18.664;2024-01-16T06:30:56;2.87;;;0.60;;
18320;SDS011;54904;54.350;18.664;2024-01-16T06:33:23;1.37;;;0.93;;
18320;SDS011;54904;54.350;18.664;2024-01-16T06:35:54;0.90;;;0.70;;
18320;SDS011;54904;54.350;18.664;2024-01-16T06:38:21;0.70;;;0.70;;
18320;SDS011;54904;54.350;18.664;2024-01-16T06:40:50;3.10;;;1.10;;
18320;SDS011;54904;54.350;18.664;2024-01-16T06:43:20;1.53;;;0.90;;
18320;SDS011;54904;54.350;18.664;2024-01-16T06:45:47;1.87;;;0.97;;
18320;SDS011;54904;54.350;18.664;2024-01-16T06:48:17;0.90;;;0.90;;
18320;SDS011;54904;54.350;18.664;2024-01-16T06:50:46;0.80;;;0.80;;
18320;SDS011;54904;54.350;18.664;2024-01-16T06:53:13;0.80;;;0.70;;
18320;SDS011;54904;54.350;18.664;2024-01-16T06:55:40;1.37;;;0.87;;
18320;SDS011;54904;54.350;18.664;2024-01-16T06:58:09;1.60;;;1.10;;
18320;SDS011;54904;54.350;18.664;2024-01-16T07:00:36;1.73;;;0.90;;
18320;SDS011;54904;54.350;18.664;2024-01-16T07:03:05;0.93;;;0.80;;
18320;SDS011;54904;54.350;18.664;2024-01-16T07:05:32;1.20;;;0.90;;
18320;SDS011;54904;54.350;18.664;2024-01-16T07:08:02;1.07;;;0.83;;
18320;SDS011;54904;54.350;18.664;2024-01-16T07:10:29;1.47;;;0.90;;
18320;SDS011;54904;54.350;18.664;2024-01-16T07:12:56;5.07;;;1.13;;
18320;SDS011;54904;54.350;18.664;2024-01-16T07:15:28;1.93;;;1.40;;
18320;SDS011;54904;54.350;18.664;2024-01-16T07:17:58;2.67;;;1.40;;
18320;SDS011;54904;54.350;18.664;2024-01-16T07:20:29;1.73;;;1.30;;
18320;SDS011;54904;54.350;18.664;2024-01-16T07:22:56;2.40;;;1.30;;
18320;SDS011;54904;54.350;18.664;2024-01-16T07:25:23;2.60;;;1.30;;
18320;SDS011;54904;54.350;18.664;2024-01-16T07:27:50;1.37;;;1.27;;
18320;SDS011;54904;54.350;18.664;2024-01-16T07:30:20;2.73;;;1.57;;
18320;SDS011;54904;54.350;18.664;2024-01-16T07:32:48;1.60;;;1.20;;
18320;SDS011;54904;54.350;18.664;2024-01-16T07:35:16;2.17;;;1.30;;
18320;SDS011;54904;54.350;18.664;2024-01-16T07:37:46;2.40;;;1.23;;
18320;SDS011;54904;54.350;18.664;2024-01-16T07:40:13;1.50;;;1.10;;
18320;SDS011;54904;54.350;18.664;2024-01-16T07:42:42;1.33;;;1.03;;
18320;SDS011;54904;54.350;18.664;2024-01-16T07:45:11;1.37;;;1.00;;
18320;SDS011;54904;54.350;18.664;2024-01-16T07:47:39;1.13;;;0.90;;
18320;SDS011;54904;54.350;18.664;2024-01-16T07:50:08;1.63;;;0.90;;
18320;SDS011;54904;54.350;18.664;2024-01-16T07:52:36;1.00;;;0.90;;
18320;SDS011;54904;54.350;18.664;2024-01-16T07:55:10;1.33;;;1.00;;
18320;SDS011;54904;54.350;18.664;2024-01-16T07:57:40;1.60;;;1.13;;
18320;SDS011;54904;54.350;18.664;2024-01-16T08:00:07;1.90;;;1.23;;
18320;SDS011;54904;54.350;18.664;2024-01-16T08:02:45;2.07;;;1.23;;
18320;SDS011;54904;54.350;18.664;2024-01-16T08:05:18;4.70;;;2.07;;
18320;SDS011;54904;54.350;18.664;2024-01-16T08:07:47;2.33;;;1.37;;
18320;SDS011;54904;54.350;18.664;2024-01-16T08:10:14;3.70;;;1.80;;
18320;SDS011;54904;54.350;18.664;2024-01-16T08:12:43;2.67;;;1.73;;
18320;SDS011;54904;54.350;18.664;2024-01-16T08:15:10;2.37;;;1.50;;
18320;SDS011;54904;54.350;18.664;2024-01-16T08:17:39;4.33;;;1.90;;
18320;SDS011;54904;54.350;18.664;2024-01-16T08:20:07;2.07;;;1.20;;
18320;SDS011;54904;54.350;18.664;2024-01-16T08:22:37;2.33;;;1.27;;
18320;SDS011;54904;54.350;18.664;2024-01-16T08:25:04;2.30;;;1.47;;
18320;SDS011;54904;54.350;18.664;2024-01-16T08:27:41;3.17;;;1.13;;
18320;SDS011;54904;54.350;18.664;2024-01-16T08:30:09;1.50;;;1.40;;
18320;SDS011;54904;54.350;18.664;2024-01-16T08:32:43;2.40;;;1.40;;
18320;SDS011;54904;54.350;18.664;2024-01-16T08:35:10;2.73;;;1.73;;
18320;SDS011;54904;54.350;18.664;2024-01-16T08:37:38;2.23;;;1.60;;
18320;SDS011;54904;54.350;18.664;2024-01-16T08:40:06;1.67;;;1.10;;
18320;SDS011;54904;54.350;18.664;2024-01-16T08:42:38;2.33;;;1.20;;
18320;SDS011;54904;54.350;18.664;2024-01-16T08:45:09;1.97;;;1.27;;
18320;SDS011;54904;54.350;18.664;2024-01-16T08:47:37;1.73;;;1.20;;
18320;SDS011;54904;54.350;18.664;2024-01-16T08:50:06;3.00;;;1.20;;
18320;SDS011;54904;54.350;18.664;2024-01-16T08:52:34;1.77;;;1.07;;
18320;SDS011;54904;54.350;18.664;2024-01-16T08:55:07;2.37;;;1.23;;
18320;SDS011;54904;54.350;18.664;2024-01-16T08:57:35;3.00;;;1.30;;
18320;SDS011;54904;54.350;18.664;2024-01-16T09:00:07;1.47;;;1.10;;
18320;SDS011;54904;54.350;18.664;2024-01-16T09:02:37;1.83;;;1.47;;
18320;SDS011;54904;54.350;18.664;2024-01-16T09:05:07;2.00;;;1.50;;
18320;SDS011;54904;54.350;18.664;2024-01-16T09:07:49;2.93;;;1.80;;
18320;SDS011;54904;54.350;18.664;2024-01-16T09:10:21;3.17;;;1.57;;
18320;SDS011;54904;54.350;18.664;2024-01-16T09:12:57;3.30;;;1.67;;
18320;SDS011;54904;54.350;18.664;2024-01-16T09:15:26;3.20;;;1.60;;
18320;SDS011;54904;54.350;18.664;2024-01-16T09:18:00;3.53;;;2.10;;
18320;SDS011;54904;54.350;18.664;2024-01-16T09:20:30;2.23;;;1.50;;
18320;SDS011;54904;54.350;18.664;2024-01-16T09:23:02;3.13;;;1.63;;
18320;SDS011;54904;54.350;18.664;2024-01-16T09:25:48;2.63;;;1.57;;
18320;SDS011;54904;54.350;18.664;2024-01-16T09:28:18;4.03;;;1.87;;
18320;SDS011;54904;54.350;18.664;2024-01-16T09:30:47;3.77;;;1.90;;
18320;SDS011;54904;54.350;18.664;2024-01-16T09:33:16;2.07;;;1.70;;
18320;SDS011;54904;54.350;18.664;2024-01-16T09:35:45;1.73;;;1.40;;
18320;SDS011;54904;54.350;18.664;2024-01-16T09:38:14;3.50;;;1.40;;
18320;SDS011;54904;54.350;18.664;2024-01-16T09:40:43;3.10;;;1.60;;
18320;SDS011;54904;54.350;18.664;2024-01-16T09:43:12;1.77;;;1.50;;
18320;SDS011;54904;54.350;18.664;2024-01-16T09:45:40;1.77;;;1.47;;
18320;SDS011;54904;54.350;18.664;2024-01-16T09:48:07;1.40;;;1.30;;
18320;SDS011;54904;54.350;18.664;2024-01-16T09:50:38;2.00;;;1.63;;
18320;SDS011;54904;54.350;18.664;2024-01-16T09:53:11;2.83;;;1.57;;
18320;SDS011;54904;54.350;18.664;2024-01-16T09:55:40;5.60;;;2.23;;
18320;SDS011;54904;54.350;18.664;2024-01-16T09:58:11;3.33;;;1.90;;
18320;SDS011;54904;54.350;18.664;2024-01-16T10:00:48;2.53;;;1.57;;
18320;SDS011;54904;54.350;18.664;2024-01-16T10:03:21;2.73;;;1.67;;
18320;SDS011;54904;54.350;18.664;2024-01-16T10:05:55;4.83;;;1.77;;
18320;SDS011;54904;54.350;18.664;2024-01-16T10:08:29;3.83;;;1.63;;
18320;SDS011;54904;54.350;18.664;2024-01-16T10:10:57;1.13;;;1.03;;
18320;SDS011;54904;54.350;18.664;2024-01-16T10:13:25;2.23;;;1.43;;
18320;SDS011;54904;54.350;18.664;2024-01-16T10:15:53;1.50;;;1.40;;
18320;SDS011;54904;54.350;18.664;2024-01-16T10:18:24;2.70;;;1.20;;
18320;SDS011;54904;54.350;18.664;2024-01-16T10:20:52;2.17;;;1.60;;
18320;SDS011;54904;54.350;18.664;2024-01-16T10:23:23;3.13;;;1.43;;
18320;SDS011;54904;54.350;18.664;2024-01-16T10:26:06;2.63;;;1.50;;
18320;SDS011;54904;54.350;18.664;2024-01-16T10:28:36;2.20;;;1.33;;
18320;SDS011;54904;54.350;18.664;2024-01-16T10:31:05;2.00;;;1.40;;
18320;SDS011;54904;54.350;18.664;2024-01-16T10:33:33;2.13;;;1.30;;
18320;SDS011;54904;54.350;18.664;2024-01-16T10:36:09;4.17;;;1.53;;
18320;SDS011;54904;54.350;18.664;2024-01-16T10:38:40;2.20;;;1.30;;
18320;SDS011;54904;54.350;18.664;2024-01-16T10:41:09;2.17;;;1.40;;
18320;SDS011;54904;54.350;18.664;2024-01-16T10:43:41;1.33;;;1.13;;
18320;SDS011;54904;54.350;18.664;2024-01-16T10:46:10;2.73;;;1.60;;
18320;SDS011;54904;54.350;18.664;2024-01-16T10:48:39;2.10;;;1.40;;
18320;SDS011;54904;54.350;18.664;2024-01-16T10:51:08;2.00;;;1.30;;
18320;SDS011;54904;54.350;18.664;2024-01-16T10:53:41;1.70;;;1.60;;
18320;SDS011;54904;54.350;18.664;2024-01-16T10:56:10;1.63;;;1.53;;
18320;SDS011;54904;54.350;18.664;2024-01-16T10:58:38;3.33;;;1.50;;
18320;SDS011;54904;54.350;18.664;2024-01-16T11:01:10;2.80;;;1.50;;
18320;SDS011;54904;54.350;18.664;2024-01-16T11:03:43;1.50;;;1.30;;
18320;SDS011;54904;54.350;18.664;2024-01-16T11:06:14;2.63;;;1.47;;
18320;SDS011;54904;54.350;18.664;2024-01-16T11:08:45;1.67;;;1.40;;
18320;SDS011;54904;54.350;18.664;2024-01-16T11:11:14;1.20;;;1.10;;
18320;SDS011;54904;54.350;18.664;2024-01-16T11:13:45;1.83;;;1.17;;
18320;SDS011;54904;54.350;18.664;2024-01-16T11:16:12;2.03;;;1.20;;
18320;SDS011;54904;54.350;18.664;2024-01-16T11:18:40;2.00;;;1.20;;
18320;SDS011;54904;54.350;18.664;2024-01-16T11:21:07;1.90;;;1.10;;
18320;SDS011;54904;54.350;18.664;2024-01-16T11:23:36;2.67;;;1.37;;
18320;SDS011;54904;54.350;18.664;2024-01-16T11:28:53;2.70;;;1.60;;
18320;SDS011;54904;54.350;18.664;2024-01-16T11:31:27;1.33;;;1.13;;
18320;SDS011;54904;54.350;18.664;2024-01-16T11:33:58;3.23;;;1.10;;
18320;SDS011;54904;54.350;18.664;2024-01-16T11:39:21;2.17;;;1.00;;
18320;SDS011;54904;54.350;18.664;2024-01-16T11:41:53;1.20;;;0.90;;
18320;SDS011;54904;54.350;18.664;2024-01-16T11:44:42;1.30;;;0.90;;
18320;SDS011;54904;54.350;18.664;2024-01-16T11:47:23;1.73;;;1.03;;
18320;SDS011;54904;54.350;18.664;2024-01-16T11:50:39;1.07;;;0.90;;
18320;SDS011;54904;54.350;18.664;2024-01-16T11:53:09;1.20;;;0.90;;
18320;SDS011;54904;54.350;18.664;2024-01-16T11:56:00;1.40;;;1.00;;
18320;SDS011;54904;54.350;18.664;2024-01-16T11:58:44;0.83;;;0.77;;
18320;SDS011;54904;54.350;18.664;2024-01-16T12:01:16;1.00;;;0.90;;
18320;SDS011;54904;54.350;18.664;2024-01-16T12:03:57;1.50;;;1.00;;
18320;SDS011;54904;54.350;18.664;2024-01-16T12:06:28;1.77;;;0.80;;
18320;SDS011;54904;54.350;18.664;2024-01-16T12:09:10;0.80;;;0.80;;
18320;SDS011;54904;54.350;18.664;2024-01-16T12:11:43;1.07;;;0.90;;
18320;SDS011;54904;54.350;18.664;2024-01-16T12:14:22;1.20;;;1.00;;
18320;SDS011;54904;54.350;18.664;2024-01-16T12:16:51;1.77;;;1.03;;
18320;SDS011;54904;54.350;18.664;2024-01-16T12:19:21;0.90;;;0.83;;
18320;SDS011;54904;54.350;18.664;2024-01-16T12:21:48;1.40;;;1.03;;
18320;SDS011;54904;54.350;18.664;2024-01-16T12:24:15;1.27;;;0.87;;
18320;SDS011;54904;54.350;18.664;2024-01-16T12:26:44;2.10;;;0.80;;
18320;SDS011;54904;54.350;18.664;2024-01-16T12:29:11;2.30;;;0.90;;
18320;SDS011;54904;54.350;18.664;2024-01-16T12:31:40;1.93;;;0.70;;
18320;SDS011;54904;54.350;18.664;2024-01-16T12:34:08;0.90;;;0.70;;
18320;SDS011;54904;54.350;18.664;2024-01-16T12:36:36;1.67;;;0.83;;
18320;SDS011;54904;54.350;18.664;2024-01-16T12:39:05;0.93;;;0.80;;
18320;SDS011;54904;54.350;18.664;2024-01-16T12:41:37;1.03;;;0.90;;
18320;SDS011;54904;54.350;18.664;2024-01-16T12:44:07;1.73;;;0.97;;
18320;SDS011;54904;54.350;18.664;2024-01-16T12:46:34;1.20;;;0.83;;
18320;SDS011;54904;54.350;18.664;2024-01-16T12:49:02;1.40;;;1.20;;
18320;SDS011;54904;54.350;18.664;2024-01-16T12:51:30;0.87;;;0.87;;
18320;SDS011;54904;54.350;18.664;2024-01-16T12:54:09;1.43;;;0.97;;
18320;SDS011;54904;54.350;18.664;2024-01-16T12:56:38;1.13;;;1.03;;
18320;SDS011;54904;54.350;18.664;2024-01-16T12:59:09;1.70;;;1.20;;
18320;SDS011;54904;54.350;18.664;2024-01-16T13:01:39;2.63;;;1.00;;
18320;SDS011;54904;54.350;18.664;2024-01-16T13:04:07;1.30;;;1.07;;
18320;SDS011;54904;54.350;18.664;2024-01-16T13:06:38;1.97;;;1.50;;
18320;SDS011;54904;54.350;18.664;2024-01-16T13:09:09;2.60;;;1.53;;
18320;SDS011;54904;54.350;18.664;2024-01-16T13:11:47;2.43;;;1.50;;
18320;SDS011;54904;54.350;18.664;2024-01-16T13:14:15;1.33;;;1.20;;
18320;SDS011;54904;54.350;18.664;2024-01-16T13:16:43;1.83;;;1.13;;
18320;SDS011;54904;54.350;18.664;2024-01-16T13:19:12;1.00;;;0.90;;
18320;SDS011;54904;54.350;18.664;2024-01-16T13:21:43;1.30;;;0.80;;
18320;SDS011;54904;54.350;18.664;2024-01-16T13:24:10;1.13;;;0.97;;
18320;SDS011;54904;54.350;18.664;2024-01-16T13:26:38;1.53;;;1.10;;
18320;SDS011;54904;54.350;18.664;2024-01-16T13:29:05;1.50;;;0.80;;
18320;SDS011;54904;54.350;18.664;2024-01-16T13:31:32;1.53;;;0.90;;
18320;SDS011;54904;54.350;18.664;2024-01-16T13:33:59;1.90;;;1.33;;
18320;SDS011;54904;54.350;18.664;2024-01-16T13:36:39;1.87;;;1.20;;
18320;SDS011;54904;54.350;18.664;2024-01-16T13:39:52;2.70;;;1.17;;
18320;SDS011;54904;54.350;18.664;2024-01-16T13:42:19;2.03;;;1.30;;
18320;SDS011;54904;54.350;18.664;2024-01-16T13:44:46;2.43;;;1.13;;
18320;SDS011;54904;54.350;18.664;2024-01-16T13:47:14;1.60;;;0.90;;
18320;SDS011;54904;54.350;18.664;2024-01-16T13:49:45;1.20;;;0.73;;
18320;SDS011;54904;54.350;18.664;2024-01-16T13:52:12;1.80;;;1.10;;
18320;SDS011;54904;54.350;18.664;2024-01-16T13:54:39;0.93;;;0.87;;
18320;SDS011;54904;54.350;18.664;2024-01-16T13:57:21;1.40;;;1.13;;
18320;SDS011;54904;54.350;18.664;2024-01-16T13:59:48;1.30;;;1.00;;
18320;SDS011;54904;54.350;18.664;2024-01-16T14:02:16;1.30;;;0.90;;
18320;SDS011;54904;54.350;18.664;2024-01-16T14:04:43;2.60;;;1.00;;
18320;SDS011;54904;54.350;18.664;2024-01-16T14:07:10;1.43;;;1.20;;
18320;SDS011;54904;54.350;18.664;2024-01-16T14:09:37;2.93;;;1.30;;
18320;SDS011;54904;54.350;18.664;2024-01-16T14:12:06;1.97;;;1.00;;
18320;SDS011;54904;54.350;18.664;2024-01-16T14:14:35;3.10;;;1.30;;
18320;SDS011;54904;54.350;18.664;2024-01-16T14:17:03;1.93;;;1.30;;
18320;SDS011;54904;54.350;18.664;2024-01-16T14:19:30;1.70;;;1.43;;
18320;SDS011;54904;54.350;18.664;2024-01-16T14:21:58;1.43;;;1.27;;
18320;SDS011;54904;54.350;18.664;2024-01-16T14:24:25;2.20;;;1.03;;
18320;SDS011;54904;54.350;18.664;2024-01-16T14:26:52;1.60;;;1.20;;
18320;SDS011;54904;54.350;18.664;2024-01-16T14:29:21;1.70;;;0.87;;
18320;SDS011;54904;54.350;18.664;2024-01-16T14:31:50;1.47;;;1.20;;
18320;SDS011;54904;54.350;18.664;2024-01-16T14:34:17;2.37;;;1.47;;
18320;SDS011;54904;54.350;18.664;2024-01-16T14:36:54;3.53;;;1.63;;
18320;SDS011;54904;54.350;18.664;2024-01-16T14:39:21;2.37;;;1.27;;
18320;SDS011;54904;54.350;18.664;2024-01-16T14:41:50;1.73;;;1.50;;
18320;SDS011;54904;54.350;18.664;2024-01-16T14:44:17;3.40;;;1.73;;
18320;SDS011;54904;54.350;18.664;2024-01-16T14:46:44;2.47;;;1.60;;
18320;SDS011;54904;54.350;18.664;2024-01-16T14:49:16;2.63;;;1.57;;
18320;SDS011;54904;54.350;18.664;2024-01-16T14:51:48;2.97;;;1.73;;
18320;SDS011;54904;54.350;18.664;2024-01-16T14:54:17;7.10;;;2.30;;